sensor_id;sensor_type;location;lat;lon;timestamp;P1;durP1;ratioP1;P2;durP2;ratioP2
22967;SDS011;11650;48.106;-1.696;2023-04-30T00:01:56;33.47;;;22.23;;
22967;SDS011;11650;48.106;-1.696;2023-04-30T00:04:22;37.93;;;24.47;;
22967;SDS011;11650;48.106;-1.696;2023-04-30T00:06:48;33.60;;;21.87;;
22967;SDS011;11650;48.106;-1.696;2023-04-30T00:09:13;37.73;;;23.33;;
22967;SDS011;11650;48.106;-1.696;2023-04-30T00:11:39;38.23;;;23.30;;
22967;SDS011;11650;48.106;-1.696;2023-04-30T00:14:05;36.27;;;22.50;;
22967;SDS011;11650;48.106;-1.696;2023-04-30T00:16:30;38.00;;;23.60;;
22967;SDS011;11650;48.106;-1.696;2023-04-30T00:18:56;36.10;;;22.63;;
22967;SDS011;11650;48.106;-1.696;2023-04-30T00:21:21;36.27;;;22.60;;
22967;SDS011;11650;48.106;-1.696;2023-04-30T00:23:47;34.77;;;22.60;;
22967;SDS011;11650;48.106;-1.696;2023-04-30T00:26:13;33.60;;;22.13;;
22967;SDS011;11650;48.106;-1.696;2023-04-30T00:28:39;38.50;;;23.43;;
22967;SDS011;11650;48.106;-1.696;2023-04-30T00:31:05;37.17;;;23.43;;
22967;SDS011;11650;48.106;-1.696;2023-04-30T00:33:33;38.60;;;22.60;;
22967;SDS011;11650;48.106;-1.696;2023-04-30T00:35:59;38.10;;;23.83;;
22967;SDS011;11650;48.106;-1.696;2023-04-30T00:38:24;39.53;;;24.60;;
22967;SDS011;11650;48.106;-1.696;2023-04-30T00:40:50;38.63;;;23.47;;
22967;SDS011;11650;48.106;-1.696;2023-04-30T00:43:17;36.63;;;23.30;;
22967;SDS011;11650;48.106;-1.696;2023-04-30T00:45:42;39.60;;;24.23;;
22967;SDS011;11650;48.106;-1.696;2023-04-30T00:48:08;38.17;;;22.97;;
22967;SDS011;11650;48.106;-1.696;2023-04-30T00:50:34;40.17;;;23.67;;
22967;SDS011;11650;48.106;-1.696;2023-04-30T00:53:00;34.07;;;22.13;;
22967;SDS011;11650;48.106;-1.696;2023-04-30T00:55:26;36.83;;;22.13;;
22967;SDS011;11650;48.106;-1.696;2023-04-30T00:57:52;37.23;;;22.97;;
22967;SDS011;11650;48.106;-1.696;2023-04-30T01:00:18;38.37;;;23.50;;
22967;SDS011;11650;48.106;-1.696;2023-04-30T01:02:44;38.57;;;24.77;;
22967;SDS011;11650;48.106;-1.696;2023-04-30T01:05:10;37.80;;;23.93;;
22967;SDS011;11650;48.106;-1.696;2023-04-30T01:07:35;39.90;;;24.50;;
22967;SDS011;11650;48.106;-1.696;2023-04-30T01:10:05;39.10;;;22.83;;
22967;SDS011;11650;48.106;-1.696;2023-04-30T01:12:40;42.20;;;23.50;;
22967;SDS011;11650;48.106;-1.696;2023-04-30T01:20:37;41.77;;;24.40;;
22967;SDS011;11650;48.106;-1.696;2023-04-30T01:28:49;39.90;;;23.80;;
22967;SDS011;11650;48.106;-1.696;2023-04-30T01:31:18;40.63;;;23.17;;
22967;SDS011;11650;48.106;-1.696;2023-04-30T01:33:44;39.33;;;23.10;;
22967;SDS011;11650;48.106;-1.696;2023-04-30T01:41:36;36.37;;;23.27;;
22967;SDS011;11650;48.106;-1.696;2023-04-30T01:46:41;39.77;;;24.30;;
22967;SDS011;11650;48.106;-1.696;2023-04-30T01:51:52;42.23;;;25.20;;
22967;SDS011;11650;48.106;-1.696;2023-04-30T01:57:28;44.60;;;26.07;;
22967;SDS011;11650;48.106;-1.696;2023-04-30T02:00:01;48.40;;;26.70;;
22967;SDS011;11650;48.106;-1.696;2023-04-30T02:02:28;45.30;;;25.30;;
22967;SDS011;11650;48.106;-1.696;2023-04-30T02:04:54;40.20;;;23.93;;
22967;SDS011;11650;48.106;-1.696;2023-04-30T02:07:36;49.67;;;26.93;;
22967;SDS011;11650;48.106;-1.696;2023-04-30T02:10:07;43.67;;;25.57;;
22967;SDS011;11650;48.106;-1.696;2023-04-30T02:12:34;45.10;;;25.43;;
22967;SDS011;11650;48.106;-1.696;2023-04-30T02:14:59;43.20;;;26.27;;
22967;SDS011;11650;48.106;-1.696;2023-04-30T02:17:26;40.87;;;25.00;;
22967;SDS011;11650;48.106;-1.696;2023-04-30T02:19:52;43.47;;;25.53;;
22967;SDS011;11650;48.106;-1.696;2023-04-30T02:22:17;39.83;;;25.03;;
22967;SDS011;11650;48.106;-1.696;2023-04-30T02:24:43;46.43;;;26.80;;
22967;SDS011;11650;48.106;-1.696;2023-04-30T02:27:08;41.30;;;25.30;;
22967;SDS011;11650;48.106;-1.696;2023-04-30T02:29:34;43.27;;;25.73;;
22967;SDS011;11650;48.106;-1.696;2023-04-30T02:32:00;39.33;;;24.57;;
22967;SDS011;11650;48.106;-1.696;2023-04-30T02:34:26;44.37;;;25.70;;
22967;SDS011;11650;48.106;-1.696;2023-04-30T02:36:51;41.53;;;24.10;;
22967;SDS011;11650;48.106;-1.696;2023-04-30T02:39:17;46.93;;;27.17;;
22967;SDS011;11650;48.106;-1.696;2023-04-30T02:41:43;40.43;;;23.97;;
22967;SDS011;11650;48.106;-1.696;2023-04-30T02:44:08;40.17;;;25.13;;
22967;SDS011;11650;48.106;-1.696;2023-04-30T02:46:34;44.20;;;25.17;;
22967;SDS011;11650;48.106;-1.696;2023-04-30T02:49:00;48.40;;;27.43;;
22967;SDS011;11650;48.106;-1.696;2023-04-30T02:51:25;41.13;;;24.97;;
22967;SDS011;11650;48.106;-1.696;2023-04-30T02:53:52;47.13;;;27.20;;
22967;SDS011;11650;48.106;-1.696;2023-04-30T02:56:18;46.67;;;26.50;;
22967;SDS011;11650;48.106;-1.696;2023-04-30T02:58:44;44.30;;;25.57;;
22967;SDS011;11650;48.106;-1.696;2023-04-30T03:01:09;42.87;;;25.80;;
22967;SDS011;11650;48.106;-1.696;2023-04-30T03:03:35;44.73;;;25.73;;
22967;SDS011;11650;48.106;-1.696;2023-04-30T03:06:00;43.87;;;25.30;;
22967;SDS011;11650;48.106;-1.696;2023-04-30T03:08:26;42.17;;;24.70;;
22967;SDS011;11650;48.106;-1.696;2023-04-30T03:10:52;41.23;;;24.43;;
22967;SDS011;11650;48.106;-1.696;2023-04-30T03:13:18;47.83;;;25.80;;
22967;SDS011;11650;48.106;-1.696;2023-04-30T03:15:43;49.53;;;26.53;;
22967;SDS011;11650;48.106;-1.696;2023-04-30T03:18:09;45.40;;;26.00;;
22967;SDS011;11650;48.106;-1.696;2023-04-30T03:20:35;43.50;;;25.70;;
22967;SDS011;11650;48.106;-1.696;2023-04-30T03:23:01;48.57;;;26.30;;
22967;SDS011;11650;48.106;-1.696;2023-04-30T03:25:27;49.13;;;28.07;;
22967;SDS011;11650;48.106;-1.696;2023-04-30T03:27:53;47.33;;;29.20;;
22967;SDS011;11650;48.106;-1.696;2023-04-30T03:30:18;51.47;;;28.63;;
22967;SDS011;11650;48.106;-1.696;2023-04-30T03:32:44;51.30;;;28.53;;
22967;SDS011;11650;48.106;-1.696;2023-04-30T03:35:10;45.97;;;27.10;;
22967;SDS011;11650;48.106;-1.696;2023-04-30T03:37:35;49.27;;;27.63;;
22967;SDS011;11650;48.106;-1.696;2023-04-30T03:40:01;49.47;;;28.40;;
22967;SDS011;11650;48.106;-1.696;2023-04-30T03:42:27;49.70;;;27.63;;
22967;SDS011;11650;48.106;-1.696;2023-04-30T03:44:53;45.07;;;26.93;;
22967;SDS011;11650;48.106;-1.696;2023-04-30T03:47:18;46.57;;;26.53;;
22967;SDS011;11650;48.106;-1.696;2023-04-30T03:49:44;43.27;;;25.13;;
22967;SDS011;11650;48.106;-1.696;2023-04-30T03:52:10;46.67;;;27.07;;
22967;SDS011;11650;48.106;-1.696;2023-04-30T03:54:36;41.63;;;24.67;;
22967;SDS011;11650;48.106;-1.696;2023-04-30T03:57:02;53.70;;;28.77;;
22967;SDS011;11650;48.106;-1.696;2023-04-30T03:59:28;43.27;;;26.43;;
22967;SDS011;11650;48.106;-1.696;2023-04-30T04:01:55;49.57;;;28.13;;
22967;SDS011;11650;48.106;-1.696;2023-04-30T04:04:21;46.97;;;28.27;;
22967;SDS011;11650;48.106;-1.696;2023-04-30T04:06:47;44.20;;;25.63;;
22967;SDS011;11650;48.106;-1.696;2023-04-30T04:09:12;47.23;;;26.93;;
22967;SDS011;11650;48.106;-1.696;2023-04-30T04:11:38;45.33;;;26.27;;
22967;SDS011;11650;48.106;-1.696;2023-04-30T04:14:04;44.13;;;26.47;;
22967;SDS011;11650;48.106;-1.696;2023-04-30T04:16:29;50.83;;;28.03;;
22967;SDS011;11650;48.106;-1.696;2023-04-30T04:18:55;44.73;;;25.93;;
22967;SDS011;11650;48.106;-1.696;2023-04-30T04:21:20;44.07;;;25.67;;
22967;SDS011;11650;48.106;-1.696;2023-04-30T04:23:46;45.00;;;25.47;;
22967;SDS011;11650;48.106;-1.696;2023-04-30T04:26:12;47.53;;;27.10;;
22967;SDS011;11650;48.106;-1.696;2023-04-30T04:28:38;43.03;;;25.97;;
22967;SDS011;11650;48.106;-1.696;2023-04-30T04:31:05;45.40;;;25.87;;
22967;SDS011;11650;48.106;-1.696;2023-04-30T04:33:31;42.50;;;25.50;;
22967;SDS011;11650;48.106;-1.696;2023-04-30T04:35:57;50.73;;;28.03;;
22967;SDS011;11650;48.106;-1.696;2023-04-30T04:38:24;44.33;;;27.60;;
22967;SDS011;11650;48.106;-1.696;2023-04-30T04:40:50;48.90;;;28.03;;
22967;SDS011;11650;48.106;-1.696;2023-04-30T04:43:17;51.30;;;27.93;;
22967;SDS011;11650;48.106;-1.696;2023-04-30T04:45:42;44.10;;;27.13;;
22967;SDS011;11650;48.106;-1.696;2023-04-30T04:48:08;44.37;;;26.63;;
22967;SDS011;11650;48.106;-1.696;2023-04-30T04:50:34;45.33;;;25.90;;
22967;SDS011;11650;48.106;-1.696;2023-04-30T04:53:00;45.93;;;27.33;;
22967;SDS011;11650;48.106;-1.696;2023-04-30T04:55:25;49.57;;;27.97;;
22967;SDS011;11650;48.106;-1.696;2023-04-30T04:57:51;51.40;;;27.97;;
22967;SDS011;11650;48.106;-1.696;2023-04-30T05:00:17;52.80;;;28.17;;
22967;SDS011;11650;48.106;-1.696;2023-04-30T05:02:43;47.60;;;28.20;;
22967;SDS011;11650;48.106;-1.696;2023-04-30T05:05:08;47.03;;;27.17;;
22967;SDS011;11650;48.106;-1.696;2023-04-30T05:07:35;44.33;;;25.67;;
22967;SDS011;11650;48.106;-1.696;2023-04-30T05:10:00;42.70;;;25.93;;
22967;SDS011;11650;48.106;-1.696;2023-04-30T05:12:26;41.77;;;26.03;;
22967;SDS011;11650;48.106;-1.696;2023-04-30T05:14:51;42.27;;;25.47;;
22967;SDS011;11650;48.106;-1.696;2023-04-30T05:17:17;44.37;;;26.07;;
22967;SDS011;11650;48.106;-1.696;2023-04-30T05:19:43;46.57;;;26.97;;
22967;SDS011;11650;48.106;-1.696;2023-04-30T05:22:09;45.60;;;27.23;;
22967;SDS011;11650;48.106;-1.696;2023-04-30T05:24:34;48.53;;;27.03;;
22967;SDS011;11650;48.106;-1.696;2023-04-30T05:27:00;47.30;;;26.47;;
22967;SDS011;11650;48.106;-1.696;2023-04-30T05:29:29;47.83;;;27.97;;
22967;SDS011;11650;48.106;-1.696;2023-04-30T05:31:55;49.37;;;27.53;;
22967;SDS011;11650;48.106;-1.696;2023-04-30T05:34:21;43.57;;;26.57;;
22967;SDS011;11650;48.106;-1.696;2023-04-30T05:36:47;48.50;;;28.00;;
22967;SDS011;11650;48.106;-1.696;2023-04-30T05:39:12;48.77;;;27.47;;
22967;SDS011;11650;48.106;-1.696;2023-04-30T05:41:38;45.43;;;26.83;;
22967;SDS011;11650;48.106;-1.696;2023-04-30T05:44:04;52.80;;;28.23;;
22967;SDS011;11650;48.106;-1.696;2023-04-30T05:46:30;47.10;;;26.40;;
22967;SDS011;11650;48.106;-1.696;2023-04-30T05:48:56;47.03;;;26.17;;
22967;SDS011;11650;48.106;-1.696;2023-04-30T05:51:22;44.53;;;25.63;;
22967;SDS011;11650;48.106;-1.696;2023-04-30T05:53:47;39.57;;;24.60;;
22967;SDS011;11650;48.106;-1.696;2023-04-30T05:56:13;34.27;;;22.90;;
22967;SDS011;11650;48.106;-1.696;2023-04-30T05:58:39;40.00;;;23.37;;
22967;SDS011;11650;48.106;-1.696;2023-04-30T06:01:04;34.47;;;21.83;;
22967;SDS011;11650;48.106;-1.696;2023-04-30T06:03:30;36.53;;;23.43;;
22967;SDS011;11650;48.106;-1.696;2023-04-30T06:05:56;34.37;;;22.13;;
22967;SDS011;11650;48.106;-1.696;2023-04-30T06:08:22;31.13;;;21.63;;
22967;SDS011;11650;48.106;-1.696;2023-04-30T06:10:47;32.23;;;22.10;;
22967;SDS011;11650;48.106;-1.696;2023-04-30T06:13:14;38.50;;;22.53;;
22967;SDS011;11650;48.106;-1.696;2023-04-30T06:15:40;30.50;;;21.20;;
22967;SDS011;11650;48.106;-1.696;2023-04-30T06:18:06;35.90;;;21.37;;
22967;SDS011;11650;48.106;-1.696;2023-04-30T06:20:32;31.87;;;21.30;;
22967;SDS011;11650;48.106;-1.696;2023-04-30T06:22:57;32.17;;;20.83;;
22967;SDS011;11650;48.106;-1.696;2023-04-30T06:25:24;30.90;;;19.73;;
22967;SDS011;11650;48.106;-1.696;2023-04-30T06:27:50;30.90;;;20.67;;
22967;SDS011;11650;48.106;-1.696;2023-04-30T06:30:18;27.10;;;18.97;;
22967;SDS011;11650;48.106;-1.696;2023-04-30T06:32:44;29.60;;;19.93;;
22967;SDS011;11650;48.106;-1.696;2023-04-30T06:35:10;25.93;;;18.40;;
22967;SDS011;11650;48.106;-1.696;2023-04-30T06:37:35;29.27;;;18.40;;
22967;SDS011;11650;48.106;-1.696;2023-04-30T06:40:04;28.87;;;18.83;;
22967;SDS011;11650;48.106;-1.696;2023-04-30T06:42:32;25.30;;;18.00;;
22967;SDS011;11650;48.106;-1.696;2023-04-30T06:45:02;27.10;;;18.73;;
22967;SDS011;11650;48.106;-1.696;2023-04-30T06:47:30;25.60;;;17.67;;
22967;SDS011;11650;48.106;-1.696;2023-04-30T06:50:00;26.30;;;17.43;;
22967;SDS011;11650;48.106;-1.696;2023-04-30T06:52:26;26.70;;;17.23;;
22967;SDS011;11650;48.106;-1.696;2023-04-30T06:54:52;26.77;;;17.57;;
22967;SDS011;11650;48.106;-1.696;2023-04-30T06:57:18;25.37;;;17.97;;
22967;SDS011;11650;48.106;-1.696;2023-04-30T06:59:43;27.10;;;17.17;;
22967;SDS011;11650;48.106;-1.696;2023-04-30T07:02:09;26.70;;;18.00;;
22967;SDS011;11650;48.106;-1.696;2023-04-30T07:04:35;25.17;;;17.93;;
22967;SDS011;11650;48.106;-1.696;2023-04-30T07:07:00;25.33;;;18.03;;
22967;SDS011;11650;48.106;-1.696;2023-04-30T07:09:29;26.30;;;17.90;;
22967;SDS011;11650;48.106;-1.696;2023-04-30T07:11:55;24.87;;;17.80;;
22967;SDS011;11650;48.106;-1.696;2023-04-30T07:14:21;24.97;;;18.43;;
22967;SDS011;11650;48.106;-1.696;2023-04-30T07:16:49;24.80;;;18.00;;
22967;SDS011;11650;48.106;-1.696;2023-04-30T07:19:15;27.60;;;18.67;;
22967;SDS011;11650;48.106;-1.696;2023-04-30T07:21:41;25.40;;;18.50;;
22967;SDS011;11650;48.106;-1.696;2023-04-30T07:24:07;26.53;;;18.50;;
22967;SDS011;11650;48.106;-1.696;2023-04-30T07:26:32;26.03;;;18.67;;
22967;SDS011;11650;48.106;-1.696;2023-04-30T07:28:58;25.63;;;17.50;;
22967;SDS011;11650;48.106;-1.696;2023-04-30T07:31:24;28.90;;;19.47;;
22967;SDS011;11650;48.106;-1.696;2023-04-30T07:33:50;31.70;;;20.13;;
22967;SDS011;11650;48.106;-1.696;2023-04-30T07:36:16;27.57;;;18.57;;
22967;SDS011;11650;48.106;-1.696;2023-04-30T07:38:42;27.47;;;19.47;;
22967;SDS011;11650;48.106;-1.696;2023-04-30T07:41:07;26.30;;;18.27;;
22967;SDS011;11650;48.106;-1.696;2023-04-30T07:43:34;23.63;;;17.10;;
22967;SDS011;11650;48.106;-1.696;2023-04-30T07:46:00;25.47;;;18.10;;
22967;SDS011;11650;48.106;-1.696;2023-04-30T07:48:26;24.27;;;17.83;;
22967;SDS011;11650;48.106;-1.696;2023-04-30T07:50:52;25.87;;;18.57;;
22967;SDS011;11650;48.106;-1.696;2023-04-30T07:53:17;25.97;;;19.30;;
22967;SDS011;11650;48.106;-1.696;2023-04-30T07:55:43;24.63;;;17.97;;
22967;SDS011;11650;48.106;-1.696;2023-04-30T07:58:08;24.27;;;17.37;;
22967;SDS011;11650;48.106;-1.696;2023-04-30T08:00:34;23.33;;;17.50;;
22967;SDS011;11650;48.106;-1.696;2023-04-30T08:03:00;25.60;;;17.47;;
22967;SDS011;11650;48.106;-1.696;2023-04-30T08:05:25;22.60;;;16.93;;
22967;SDS011;11650;48.106;-1.696;2023-04-30T08:07:51;24.07;;;17.73;;
22967;SDS011;11650;48.106;-1.696;2023-04-30T08:10:17;24.43;;;18.10;;
22967;SDS011;11650;48.106;-1.696;2023-04-30T08:12:43;24.93;;;17.73;;
22967;SDS011;11650;48.106;-1.696;2023-04-30T08:15:09;24.53;;;17.40;;
22967;SDS011;11650;48.106;-1.696;2023-04-30T08:17:35;22.80;;;17.63;;
22967;SDS011;11650;48.106;-1.696;2023-04-30T08:20:02;24.77;;;17.90;;
22967;SDS011;11650;48.106;-1.696;2023-04-30T08:22:28;25.90;;;17.70;;
22967;SDS011;11650;48.106;-1.696;2023-04-30T08:24:54;25.33;;;18.83;;
22967;SDS011;11650;48.106;-1.696;2023-04-30T08:27:20;24.83;;;18.37;;
22967;SDS011;11650;48.106;-1.696;2023-04-30T08:29:47;24.37;;;17.87;;
22967;SDS011;11650;48.106;-1.696;2023-04-30T08:32:13;26.60;;;19.07;;
22967;SDS011;11650;48.106;-1.696;2023-04-30T08:34:38;25.27;;;17.97;;
22967;SDS011;11650;48.106;-1.696;2023-04-30T08:37:05;27.67;;;18.83;;
22967;SDS011;11650;48.106;-1.696;2023-04-30T08:39:31;28.27;;;18.53;;
22967;SDS011;11650;48.106;-1.696;2023-04-30T08:41:57;25.97;;;17.80;;
22967;SDS011;11650;48.106;-1.696;2023-04-30T08:44:26;28.50;;;19.43;;
22967;SDS011;11650;48.106;-1.696;2023-04-30T08:46:53;28.83;;;19.83;;
22967;SDS011;11650;48.106;-1.696;2023-04-30T08:49:22;25.90;;;18.73;;
22967;SDS011;11650;48.106;-1.696;2023-04-30T08:51:49;25.37;;;18.63;;
22967;SDS011;11650;48.106;-1.696;2023-04-30T08:54:15;22.43;;;16.53;;
22967;SDS011;11650;48.106;-1.696;2023-04-30T08:56:43;25.93;;;17.47;;
22967;SDS011;11650;48.106;-1.696;2023-04-30T08:59:09;24.87;;;17.60;;
22967;SDS011;11650;48.106;-1.696;2023-04-30T09:01:36;26.60;;;18.40;;
22967;SDS011;11650;48.106;-1.696;2023-04-30T09:04:02;24.43;;;17.63;;
22967;SDS011;11650;48.106;-1.696;2023-04-30T09:06:28;23.97;;;17.17;;
22967;SDS011;11650;48.106;-1.696;2023-04-30T09:08:55;22.90;;;17.53;;
22967;SDS011;11650;48.106;-1.696;2023-04-30T09:11:28;24.50;;;17.57;;
22967;SDS011;11650;48.106;-1.696;2023-04-30T09:13:58;26.20;;;17.00;;
22967;SDS011;11650;48.106;-1.696;2023-04-30T09:16:26;23.37;;;17.33;;
22967;SDS011;11650;48.106;-1.696;2023-04-30T09:18:54;24.33;;;18.17;;
22967;SDS011;11650;48.106;-1.696;2023-04-30T09:21:30;24.27;;;17.27;;
22967;SDS011;11650;48.106;-1.696;2023-04-30T09:24:01;23.50;;;18.17;;
22967;SDS011;11650;48.106;-1.696;2023-04-30T09:26:31;24.43;;;17.80;;
22967;SDS011;11650;48.106;-1.696;2023-04-30T09:28:59;25.83;;;19.10;;
22967;SDS011;11650;48.106;-1.696;2023-04-30T09:31:26;25.67;;;18.87;;
22967;SDS011;11650;48.106;-1.696;2023-04-30T09:33:53;25.20;;;19.00;;
22967;SDS011;11650;48.106;-1.696;2023-04-30T09:36:19;26.37;;;19.13;;
22967;SDS011;11650;48.106;-1.696;2023-04-30T09:38:44;26.40;;;19.50;;
22967;SDS011;11650;48.106;-1.696;2023-04-30T09:41:23;28.10;;;19.50;;
22967;SDS011;11650;48.106;-1.696;2023-04-30T09:43:54;25.80;;;19.20;;
22967;SDS011;11650;48.106;-1.696;2023-04-30T09:46:21;26.47;;;19.60;;
22967;SDS011;11650;48.106;-1.696;2023-04-30T09:48:58;28.43;;;20.93;;
22967;SDS011;11650;48.106;-1.696;2023-04-30T09:51:24;24.83;;;19.83;;
22967;SDS011;11650;48.106;-1.696;2023-04-30T09:53:51;27.53;;;19.80;;
22967;SDS011;11650;48.106;-1.696;2023-04-30T09:56:21;25.53;;;18.47;;
22967;SDS011;11650;48.106;-1.696;2023-04-30T09:58:51;26.03;;;19.33;;
22967;SDS011;11650;48.106;-1.696;2023-04-30T10:01:19;28.87;;;20.77;;
22967;SDS011;11650;48.106;-1.696;2023-04-30T10:03:46;29.70;;;21.67;;
22967;SDS011;11650;48.106;-1.696;2023-04-30T10:06:13;28.80;;;20.40;;
22967;SDS011;11650;48.106;-1.696;2023-04-30T10:08:42;28.70;;;20.50;;
22967;SDS011;11650;48.106;-1.696;2023-04-30T10:11:11;27.63;;;19.87;;
22967;SDS011;11650;48.106;-1.696;2023-04-30T10:13:46;29.70;;;19.90;;
22967;SDS011;11650;48.106;-1.696;2023-04-30T10:16:17;27.80;;;19.30;;
22967;SDS011;11650;48.106;-1.696;2023-04-30T10:18:45;26.37;;;20.10;;
22967;SDS011;11650;48.106;-1.696;2023-04-30T10:21:14;28.50;;;19.63;;
22967;SDS011;11650;48.106;-1.696;2023-04-30T10:23:42;27.33;;;19.03;;
22967;SDS011;11650;48.106;-1.696;2023-04-30T10:26:11;25.53;;;18.90;;
22967;SDS011;11650;48.106;-1.696;2023-04-30T10:28:40;26.93;;;19.60;;
22967;SDS011;11650;48.106;-1.696;2023-04-30T10:31:06;25.10;;;18.97;;
22967;SDS011;11650;48.106;-1.696;2023-04-30T10:36:31;26.50;;;19.50;;
22967;SDS011;11650;48.106;-1.696;2023-04-30T10:38:59;24.83;;;18.60;;
22967;SDS011;11650;48.106;-1.696;2023-04-30T10:41:26;25.33;;;19.07;;
22967;SDS011;11650;48.106;-1.696;2023-04-30T10:43:56;26.83;;;18.57;;
22967;SDS011;11650;48.106;-1.696;2023-04-30T10:46:25;25.93;;;19.00;;
22967;SDS011;11650;48.106;-1.696;2023-04-30T10:48:52;25.63;;;18.60;;
22967;SDS011;11650;48.106;-1.696;2023-04-30T10:51:21;26.33;;;18.47;;
22967;SDS011;11650;48.106;-1.696;2023-04-30T10:53:50;24.70;;;17.00;;
22967;SDS011;11650;48.106;-1.696;2023-04-30T10:56:30;26.27;;;18.87;;
22967;SDS011;11650;48.106;-1.696;2023-04-30T10:59:00;23.97;;;17.47;;
22967;SDS011;11650;48.106;-1.696;2023-04-30T11:01:29;21.47;;;16.70;;
22967;SDS011;11650;48.106;-1.696;2023-04-30T11:04:07;22.47;;;15.97;;
22967;SDS011;11650;48.106;-1.696;2023-04-30T11:12:04;18.30;;;13.97;;
22967;SDS011;11650;48.106;-1.696;2023-04-30T11:14:41;18.27;;;14.27;;
22967;SDS011;11650;48.106;-1.696;2023-04-30T11:17:09;16.17;;;12.50;;
22967;SDS011;11650;48.106;-1.696;2023-04-30T11:19:36;17.83;;;13.23;;
22967;SDS011;11650;48.106;-1.696;2023-04-30T11:27:23;16.70;;;13.70;;
22967;SDS011;11650;48.106;-1.696;2023-04-30T11:29:53;19.17;;;13.83;;
22967;SDS011;11650;48.106;-1.696;2023-04-30T11:32:20;18.90;;;14.80;;
22967;SDS011;11650;48.106;-1.696;2023-04-30T11:34:47;18.53;;;15.33;;
22967;SDS011;11650;48.106;-1.696;2023-04-30T11:37:20;19.80;;;14.80;;
22967;SDS011;11650;48.106;-1.696;2023-04-30T11:40:10;22.10;;;14.43;;
22967;SDS011;11650;48.106;-1.696;2023-04-30T11:42:37;18.37;;;14.10;;
22967;SDS011;11650;48.106;-1.696;2023-04-30T11:50:10;19.43;;;15.37;;
22967;SDS011;11650;48.106;-1.696;2023-04-30T11:52:40;18.93;;;15.03;;
22967;SDS011;11650;48.106;-1.696;2023-04-30T11:55:13;21.30;;;15.37;;
22967;SDS011;11650;48.106;-1.696;2023-04-30T11:57:43;23.00;;;15.43;;
22967;SDS011;11650;48.106;-1.696;2023-04-30T12:02:46;21.73;;;14.67;;
22967;SDS011;11650;48.106;-1.696;2023-04-30T12:05:13;18.13;;;14.40;;
22967;SDS011;11650;48.106;-1.696;2023-04-30T12:07:49;18.67;;;14.07;;
22967;SDS011;11650;48.106;-1.696;2023-04-30T12:10:17;19.03;;;13.70;;
22967;SDS011;11650;48.106;-1.696;2023-04-30T12:12:44;17.97;;;13.10;;
22967;SDS011;11650;48.106;-1.696;2023-04-30T12:15:11;18.67;;;14.13;;
22967;SDS011;11650;48.106;-1.696;2023-04-30T12:17:41;19.33;;;13.27;;
22967;SDS011;11650;48.106;-1.696;2023-04-30T12:20:08;18.93;;;13.80;;
22967;SDS011;11650;48.106;-1.696;2023-04-30T12:22:34;19.87;;;14.27;;
22967;SDS011;11650;48.106;-1.696;2023-04-30T12:25:04;20.63;;;15.20;;
22967;SDS011;11650;48.106;-1.696;2023-04-30T12:27:32;23.23;;;16.00;;
22967;SDS011;11650;48.106;-1.696;2023-04-30T12:30:02;21.90;;;15.43;;
22967;SDS011;11650;48.106;-1.696;2023-04-30T12:32:38;26.90;;;16.57;;
22967;SDS011;11650;48.106;-1.696;2023-04-30T12:35:05;23.30;;;15.77;;
22967;SDS011;11650;48.106;-1.696;2023-04-30T12:37:31;22.87;;;16.30;;
22967;SDS011;11650;48.106;-1.696;2023-04-30T12:39:57;21.83;;;15.57;;
22967;SDS011;11650;48.106;-1.696;2023-04-30T12:42:24;23.13;;;16.00;;
22967;SDS011;11650;48.106;-1.696;2023-04-30T12:44:56;21.87;;;15.87;;
22967;SDS011;11650;48.106;-1.696;2023-04-30T12:47:23;23.33;;;15.50;;
22967;SDS011;11650;48.106;-1.696;2023-04-30T12:49:49;24.07;;;16.00;;
22967;SDS011;11650;48.106;-1.696;2023-04-30T12:52:15;22.33;;;15.20;;
22967;SDS011;11650;48.106;-1.696;2023-04-30T12:54:41;22.27;;;15.17;;
22967;SDS011;11650;48.106;-1.696;2023-04-30T12:57:11;19.57;;;13.47;;
22967;SDS011;11650;48.106;-1.696;2023-04-30T12:59:38;22.67;;;15.33;;
22967;SDS011;11650;48.106;-1.696;2023-04-30T13:02:23;20.90;;;15.20;;
22967;SDS011;11650;48.106;-1.696;2023-04-30T13:04:49;21.17;;;15.13;;
22967;SDS011;11650;48.106;-1.696;2023-04-30T13:07:17;20.77;;;15.03;;
22967;SDS011;11650;48.106;-1.696;2023-04-30T13:09:44;19.07;;;13.10;;
22967;SDS011;11650;48.106;-1.696;2023-04-30T13:12:09;17.90;;;12.47;;
22967;SDS011;11650;48.106;-1.696;2023-04-30T13:14:36;15.17;;;11.03;;
22967;SDS011;11650;48.106;-1.696;2023-04-30T13:17:02;13.37;;;10.20;;
22967;SDS011;11650;48.106;-1.696;2023-04-30T13:19:29;13.03;;;9.50;;
22967;SDS011;11650;48.106;-1.696;2023-04-30T13:21:55;10.77;;;8.03;;
22967;SDS011;11650;48.106;-1.696;2023-04-30T13:24:22;10.40;;;8.17;;
22967;SDS011;11650;48.106;-1.696;2023-04-30T13:26:48;12.03;;;8.30;;
22967;SDS011;11650;48.106;-1.696;2023-04-30T13:29:14;10.70;;;7.90;;
22967;SDS011;11650;48.106;-1.696;2023-04-30T13:31:40;9.93;;;7.80;;
22967;SDS011;11650;48.106;-1.696;2023-04-30T13:34:07;9.53;;;7.53;;
22967;SDS011;11650;48.106;-1.696;2023-04-30T13:36:33;10.67;;;7.40;;
22967;SDS011;11650;48.106;-1.696;2023-04-30T13:38:59;10.77;;;7.30;;
22967;SDS011;11650;48.106;-1.696;2023-04-30T13:41:25;10.40;;;7.23;;
22967;SDS011;11650;48.106;-1.696;2023-04-30T13:43:51;8.93;;;7.43;;
22967;SDS011;11650;48.106;-1.696;2023-04-30T13:46:16;12.70;;;8.73;;
22967;SDS011;11650;48.106;-1.696;2023-04-30T13:48:42;9.57;;;7.70;;
22967;SDS011;11650;48.106;-1.696;2023-04-30T13:51:12;8.63;;;6.93;;
22967;SDS011;11650;48.106;-1.696;2023-04-30T13:53:37;9.03;;;6.63;;
22967;SDS011;11650;48.106;-1.696;2023-04-30T13:56:04;9.63;;;7.20;;
22967;SDS011;11650;48.106;-1.696;2023-04-30T13:58:30;9.83;;;7.10;;
22967;SDS011;11650;48.106;-1.696;2023-04-30T14:00:56;7.77;;;5.73;;
22967;SDS011;11650;48.106;-1.696;2023-04-30T14:03:22;6.77;;;5.80;;
22967;SDS011;11650;48.106;-1.696;2023-04-30T14:05:48;5.30;;;4.80;;
22967;SDS011;11650;48.106;-1.696;2023-04-30T14:08:13;8.27;;;5.37;;
22967;SDS011;11650;48.106;-1.696;2023-04-30T14:10:39;8.50;;;7.20;;
22967;SDS011;11650;48.106;-1.696;2023-04-30T14:13:05;8.97;;;6.90;;
22967;SDS011;11650;48.106;-1.696;2023-04-30T14:15:30;8.07;;;7.23;;
22967;SDS011;11650;48.106;-1.696;2023-04-30T14:17:57;9.13;;;6.73;;
22967;SDS011;11650;48.106;-1.696;2023-04-30T14:20:24;8.50;;;6.70;;
22967;SDS011;11650;48.106;-1.696;2023-04-30T14:22:50;8.40;;;6.83;;
22967;SDS011;11650;48.106;-1.696;2023-04-30T14:25:15;7.53;;;5.67;;
22967;SDS011;11650;48.106;-1.696;2023-04-30T14:27:41;8.97;;;7.20;;
22967;SDS011;11650;48.106;-1.696;2023-04-30T14:30:07;10.83;;;7.50;;
22967;SDS011;11650;48.106;-1.696;2023-04-30T14:32:34;9.97;;;7.73;;
22967;SDS011;11650;48.106;-1.696;2023-04-30T14:35:00;8.63;;;6.33;;
22967;SDS011;11650;48.106;-1.696;2023-04-30T14:37:26;6.57;;;5.53;;
22967;SDS011;11650;48.106;-1.696;2023-04-30T14:39:52;8.90;;;5.23;;
22967;SDS011;11650;48.106;-1.696;2023-04-30T14:42:18;7.30;;;3.93;;
22967;SDS011;11650;48.106;-1.696;2023-04-30T14:44:47;4.50;;;3.80;;
22967;SDS011;11650;48.106;-1.696;2023-04-30T14:47:12;4.17;;;2.80;;
22967;SDS011;11650;48.106;-1.696;2023-04-30T14:49:38;3.97;;;2.30;;
22967;SDS011;11650;48.106;-1.696;2023-04-30T14:52:04;4.37;;;2.40;;
22967;SDS011;11650;48.106;-1.696;2023-04-30T14:54:30;3.83;;;2.30;;
22967;SDS011;11650;48.106;-1.696;2023-04-30T14:56:56;3.13;;;2.42;;